createdAt,value
2018-10-07T00:01:13.224Z,18.80
2018-10-07T00:03:41.450Z,18.60
2018-10-07T00:06:09.726Z,18.50
2018-10-07T00:08:39.370Z,18.40
2018-10-07T00:11:07.640Z,18.30
2018-10-07T00:13:35.977Z,18.20
2018-10-07T00:16:04.537Z,18.10
2018-10-07T00:18:32.774Z,18.00
2018-10-07T00:21:01.043Z,18.00
2018-10-07T00:23:29.273Z,18.00
2018-10-07T00:25:57.554Z,18.00
2018-10-07T00:28:25.762Z,17.90
2018-10-07T00:30:54.065Z,18.00
2018-10-07T00:33:22.384Z,18.10
2018-10-07T00:35:50.706Z,18.20
2018-10-07T00:38:18.994Z,18.20
2018-10-07T00:40:47.267Z,18.20
2018-10-07T00:43:15.569Z,18.20
2018-10-07T00:45:44.838Z,18.20
2018-10-07T00:48:13.223Z,18.20
2018-10-07T00:50:41.529Z,18.10
2018-10-07T00:53:09.792Z,18.20
2018-10-07T00:55:38.084Z,18.20
2018-10-07T00:58:06.334Z,18.30
2018-10-07T01:00:35.047Z,18.20
2018-10-07T01:03:03.301Z,18.30
2018-10-07T01:05:31.541Z,18.40
2018-10-07T01:07:59.843Z,18.40
2018-10-07T01:10:28.114Z,18.40
2018-10-07T01:12:56.349Z,18.30
2018-10-07T01:15:24.586Z,18.20
2018-10-07T01:17:52.817Z,18.00
2018-10-07T01:20:21.119Z,17.80
2018-10-07T01:22:49.526Z,17.70
2018-10-07T01:25:17.886Z,17.60
2018-10-07T01:27:46.175Z,17.30
2018-10-07T01:30:14.432Z,17.20
2018-10-07T01:32:42.709Z,17.10
2018-10-07T01:35:11.051Z,16.90
2018-10-07T01:37:39.282Z,16.90
2018-10-07T01:40:07.574Z,16.90
2018-10-07T01:42:35.828Z,16.70
2018-10-07T01:45:04.104Z,16.60
2018-10-07T01:47:32.374Z,16.50
2018-10-07T01:50:00.612Z,16.50
2018-10-07T01:52:28.819Z,16.40
2018-10-07T01:54:57.095Z,16.40
2018-10-07T01:57:25.362Z,16.40
2018-10-07T01:59:53.593Z,16.40
2018-10-07T02:02:21.838Z,16.50
2018-10-07T02:04:50.140Z,16.60
2018-10-07T02:07:18.395Z,16.70
2018-10-07T02:09:46.655Z,16.70
2018-10-07T02:12:14.870Z,16.70
2018-10-07T02:14:43.111Z,16.70
2018-10-07T02:17:12.348Z,16.70
2018-10-07T02:19:40.565Z,16.70
2018-10-07T02:22:08.821Z,16.70
2018-10-07T02:24:37.162Z,16.70
2018-10-07T02:27:05.415Z,16.70
2018-10-07T02:29:33.677Z,16.70
2018-10-07T02:32:01.930Z,16.60
2018-10-07T02:34:30.174Z,16.60
2018-10-07T02:36:58.402Z,16.60
2018-10-07T02:39:26.680Z,16.60
2018-10-07T02:41:54.891Z,16.60
2018-10-07T02:44:23.130Z,16.60
2018-10-07T02:46:51.350Z,16.60
2018-10-07T02:49:19.678Z,16.50
2018-10-07T02:51:48.082Z,16.50
2018-10-07T02:54:16.364Z,16.40
2018-10-07T02:56:44.695Z,16.40
2018-10-07T02:59:14.419Z,16.50
2018-10-07T03:01:42.863Z,16.60
2018-10-07T03:04:11.192Z,16.60
2018-10-07T03:06:39.403Z,16.70
2018-10-07T03:09:08.757Z,16.70
2018-10-07T03:11:36.988Z,16.80
2018-10-07T03:14:05.238Z,16.70
2018-10-07T03:16:33.518Z,16.70
2018-10-07T03:19:01.780Z,16.80
2018-10-07T03:21:30.158Z,16.80
2018-10-07T03:23:58.393Z,16.80
2018-10-07T03:26:26.634Z,16.70
2018-10-07T03:28:54.895Z,16.70
2018-10-07T03:31:23.169Z,16.60
2018-10-07T03:33:51.442Z,16.60
2018-10-07T03:36:19.678Z,16.60
2018-10-07T03:38:47.918Z,16.70
2018-10-07T03:41:16.194Z,16.70
2018-10-07T03:43:44.431Z,16.70
2018-10-07T03:46:12.732Z,16.80
2018-10-07T03:48:40.973Z,16.80
2018-10-07T03:51:09.199Z,16.80
2018-10-07T03:53:37.455Z,16.80
2018-10-07T03:56:05.810Z,16.90
2018-10-07T03:58:34.056Z,16.90
2018-10-07T04:01:02.334Z,16.90
2018-10-07T04:03:30.621Z,16.90
2018-10-07T04:05:58.852Z,16.90
2018-10-07T04:08:27.092Z,16.90
2018-10-07T04:10:55.359Z,16.90
2018-10-07T04:13:23.635Z,16.90
2018-10-07T04:15:51.986Z,17.00
2018-10-07T04:18:20.241Z,17.00
2018-10-07T04:20:55.274Z,17.00
2018-10-07T04:23:23.518Z,17.10
2018-10-07T04:25:51.803Z,17.10
2018-10-07T04:28:20.046Z,17.10
2018-10-07T04:30:48.299Z,17.10
2018-10-07T04:33:16.553Z,17.10
2018-10-07T04:35:44.809Z,17.10
2018-10-07T04:38:13.227Z,17.10
2018-10-07T04:40:41.479Z,17.20
2018-10-07T04:43:09.694Z,17.20
2018-10-07T04:45:38.047Z,17.20
2018-10-07T04:48:06.414Z,17.20
2018-10-07T04:50:34.707Z,17.20
2018-10-07T04:53:02.978Z,17.30
2018-10-07T04:55:31.298Z,17.30
2018-10-07T04:57:59.673Z,17.40
2018-10-07T05:00:27.959Z,17.30
2018-10-07T05:02:56.199Z,17.30
2018-10-07T05:05:24.799Z,17.20
2018-10-07T05:07:53.108Z,17.20
2018-10-07T05:10:45.478Z,17.10
2018-10-07T05:13:15.536Z,17.20
2018-10-07T05:15:44.237Z,17.20
2018-10-07T05:18:12.549Z,17.30
2018-10-07T05:20:41.085Z,17.30
2018-10-07T05:23:09.370Z,17.30
2018-10-07T05:25:37.628Z,17.30
2018-10-07T05:28:05.886Z,17.30
2018-10-07T05:30:34.159Z,17.20
2018-10-07T05:33:02.804Z,17.20
2018-10-07T05:35:31.029Z,17.10
2018-10-07T05:37:59.307Z,17.00
2018-10-07T05:40:27.572Z,17.00
2018-10-07T05:42:55.854Z,16.90
2018-10-07T05:45:24.149Z,16.80
2018-10-07T05:47:52.516Z,16.80
2018-10-07T05:50:20.733Z,16.80
2018-10-07T05:52:48.992Z,16.70
2018-10-07T05:55:17.234Z,16.70
2018-10-07T05:57:45.782Z,16.70
2018-10-07T06:00:15.641Z,16.70
2018-10-07T06:02:45.881Z,16.70
2018-10-07T06:05:14.615Z,16.70
2018-10-07T06:07:43.100Z,16.70
2018-10-07T06:10:11.440Z,16.70
2018-10-07T06:12:39.817Z,16.70
2018-10-07T06:15:23.526Z,16.70
2018-10-07T06:17:51.855Z,16.60
2018-10-07T06:20:20.167Z,16.40
2018-10-07T06:22:48.407Z,16.40
2018-10-07T06:25:16.710Z,16.40
2018-10-07T06:27:44.980Z,16.40
2018-10-07T06:30:13.308Z,16.30
2018-10-07T06:32:41.539Z,16.30
2018-10-07T06:35:09.887Z,16.20
2018-10-07T06:37:41.174Z,16.10
2018-10-07T06:40:09.407Z,16.20
2018-10-07T06:42:37.670Z,16.00
2018-10-07T06:45:05.952Z,16.00
2018-10-07T06:47:34.158Z,16.00
2018-10-07T06:50:03.522Z,16.10
2018-10-07T06:52:31.830Z,16.10
2018-10-07T06:55:00.315Z,16.20
2018-10-07T06:57:29.958Z,16.20
2018-10-07T06:59:58.363Z,16.10
2018-10-07T07:02:26.641Z,16.10
2018-10-07T07:04:55.198Z,16.00
2018-10-07T07:07:23.781Z,15.90
2018-10-07T07:09:52.208Z,15.90
2018-10-07T07:12:20.425Z,15.80
2018-10-07T07:14:48.642Z,15.70
2018-10-07T07:17:16.896Z,15.60
2018-10-07T07:19:45.768Z,15.50
2018-10-07T07:22:13.983Z,15.40
2018-10-07T07:24:42.239Z,15.40
2018-10-07T07:27:10.495Z,15.40
2018-10-07T07:29:39.569Z,15.40
2018-10-07T07:32:07.862Z,15.30
2018-10-07T07:34:36.121Z,15.30
2018-10-07T07:37:05.136Z,15.40
2018-10-07T07:39:33.363Z,15.50
2018-10-07T07:42:01.707Z,15.40
2018-10-07T07:44:29.952Z,15.40
2018-10-07T07:46:58.172Z,15.50
2018-10-07T07:49:26.382Z,15.50
2018-10-07T07:51:54.594Z,15.60
2018-10-07T07:54:22.887Z,15.60
2018-10-07T07:56:51.136Z,15.60
2018-10-07T07:59:19.463Z,15.60
2018-10-07T08:01:47.778Z,15.60
2018-10-07T08:04:16.137Z,15.50
2018-10-07T08:06:44.434Z,15.40
2018-10-07T08:09:12.673Z,15.40
2018-10-07T08:11:41.128Z,15.40
2018-10-07T08:14:09.351Z,15.40
2018-10-07T08:16:37.760Z,15.40
2018-10-07T08:19:06.026Z,15.40
2018-10-07T08:21:35.167Z,15.40
2018-10-07T08:24:03.392Z,15.30
2018-10-07T08:26:31.619Z,15.20
2018-10-07T08:28:59.866Z,15.10
2018-10-07T08:31:28.186Z,15.20
2018-10-07T08:33:56.400Z,15.20
2018-10-07T08:36:24.690Z,15.20
2018-10-07T08:38:52.946Z,15.30
2018-10-07T08:41:21.179Z,15.30
2018-10-07T08:43:50.238Z,15.40
2018-10-07T08:46:18.496Z,15.30
2018-10-07T08:48:46.779Z,15.20
2018-10-07T08:51:15.068Z,15.30
2018-10-07T08:53:43.334Z,15.50
2018-10-07T08:56:11.736Z,15.50
2018-10-07T08:58:39.942Z,15.60
2018-10-07T09:01:08.163Z,15.60
2018-10-07T09:03:36.414Z,15.70
2018-10-07T09:06:04.757Z,15.70
2018-10-07T09:08:33.576Z,15.80
2018-10-07T09:11:01.775Z,15.80
2018-10-07T09:13:30.001Z,15.70
2018-10-07T09:15:58.223Z,15.70
2018-10-07T09:18:26.462Z,15.80
2018-10-07T09:20:54.755Z,15.90
2018-10-07T09:23:23.235Z,15.90
2018-10-07T09:25:51.632Z,15.80
2018-10-07T09:28:19.914Z,15.80
2018-10-07T09:30:48.130Z,15.80
2018-10-07T09:33:16.311Z,15.80
2018-10-07T09:35:44.498Z,15.60
2018-10-07T09:38:12.839Z,15.60
2018-10-07T09:40:41.087Z,15.60
2018-10-07T09:43:09.317Z,15.70
2018-10-07T09:45:37.566Z,15.70
2018-10-07T09:48:05.925Z,15.90
2018-10-07T09:50:34.172Z,16.10
2018-10-07T09:53:02.369Z,16.30
2018-10-07T09:55:31.002Z,16.40
2018-10-07T09:57:59.288Z,16.60
2018-10-07T10:00:42.113Z,16.50
2018-10-07T10:03:11.561Z,16.40
2018-10-07T10:05:39.877Z,16.20
2018-10-07T10:08:08.623Z,16.20
2018-10-07T10:10:36.857Z,16.20
2018-10-07T10:13:05.272Z,16.40
2018-10-07T10:15:33.469Z,16.60
2018-10-07T10:18:03.154Z,16.70
2018-10-07T10:21:38.436Z,16.80
2018-10-07T10:24:20.330Z,16.80
2018-10-07T10:27:05.501Z,17.00
2018-10-07T10:29:37.798Z,17.10
2018-10-07T10:32:11.483Z,16.90
2018-10-07T10:34:48.457Z,16.90
2018-10-07T10:44:54.161Z,17.00
2018-10-07T10:47:30.155Z,16.80
2018-10-07T10:50:11.520Z,16.70
2018-10-07T10:53:46.987Z,16.60
2018-10-07T10:56:30.894Z,16.70
2018-10-07T11:01:15.443Z,16.90
2018-10-07T11:03:50.632Z,17.00
2018-10-07T11:06:25.341Z,16.90
2018-10-07T11:10:04.355Z,17.00
2018-10-07T11:12:43.434Z,17.20
2018-10-07T11:15:34.317Z,17.30
2018-10-07T11:18:26.271Z,17.40
2018-10-07T11:21:10.456Z,17.40
2018-10-07T11:24:14.844Z,17.30
2018-10-07T11:26:51.543Z,17.40
2018-10-07T11:29:31.178Z,17.60
2018-10-07T11:34:13.708Z,17.50
2018-10-07T11:37:24.951Z,17.40
2018-10-07T11:41:04.835Z,17.50
2018-10-07T11:43:40.048Z,17.60
2018-10-07T11:46:13.610Z,17.60
2018-10-07T11:48:47.950Z,17.60
2018-10-07T11:52:36.401Z,17.60
2018-10-07T11:55:05.084Z,17.60
2018-10-07T11:57:33.403Z,17.50
2018-10-07T12:00:02.033Z,17.40
2018-10-07T12:02:30.371Z,17.50
2018-10-07T12:04:59.283Z,17.60
2018-10-07T12:07:30.479Z,17.70
2018-10-07T12:09:58.703Z,17.90
2018-10-07T12:12:27.397Z,18.00
2018-10-07T12:14:55.717Z,18.10
2018-10-07T12:17:24.010Z,18.20
2018-10-07T12:19:52.254Z,18.20
2018-10-07T12:22:20.538Z,18.30
2018-10-07T12:24:49.244Z,18.40
2018-10-07T12:27:17.545Z,18.50
2018-10-07T12:29:45.780Z,18.50
2018-10-07T12:32:13.985Z,18.50
2018-10-07T12:34:42.243Z,18.50
2018-10-07T12:37:10.481Z,18.60
2018-10-07T12:39:39.499Z,18.60
2018-10-07T12:42:16.283Z,18.60
2018-10-07T12:44:44.593Z,18.50
2018-10-07T12:47:18.223Z,18.50
2018-10-07T12:49:46.664Z,18.50
2018-10-07T12:52:15.702Z,18.40
2018-10-07T12:54:44.025Z,18.50
2018-10-07T12:57:12.494Z,18.50
2018-10-07T12:59:41.032Z,18.60
2018-10-07T13:02:09.657Z,18.70
2018-10-07T13:04:37.926Z,18.70
2018-10-07T13:07:06.280Z,18.80
2018-10-07T13:09:34.946Z,18.70
2018-10-07T13:12:03.122Z,18.60
2018-10-07T13:14:31.511Z,18.60
2018-10-07T13:16:59.802Z,18.50
2018-10-07T13:19:28.081Z,18.40
2018-10-07T13:21:56.380Z,18.40
2018-10-07T13:24:25.021Z,18.60
2018-10-07T13:26:53.380Z,18.70
2018-10-07T13:29:21.710Z,18.80
2018-10-07T13:31:49.959Z,18.90
2018-10-07T13:34:18.442Z,19.00
2018-10-07T13:36:47.421Z,19.10
2018-10-07T13:39:15.642Z,19.20
2018-10-07T13:41:43.874Z,19.20
2018-10-07T13:44:12.253Z,19.00
2018-10-07T13:46:40.723Z,19.00
2018-10-07T13:49:09.050Z,19.00
2018-10-07T13:51:37.542Z,19.10
2018-10-07T13:54:06.079Z,19.20
2018-10-07T13:56:41.107Z,19.20
2018-10-07T13:59:09.449Z,19.20
2018-10-07T14:01:39.006Z,19.10
2018-10-07T14:04:07.697Z,19.10
2018-10-07T14:06:36.014Z,19.10
2018-10-07T14:09:05.926Z,19.10
2018-10-07T14:11:34.178Z,19.10
2018-10-07T14:14:02.682Z,19.10
2018-10-07T14:16:31.700Z,19.20
2018-10-07T14:19:00.354Z,19.10
2018-10-07T14:21:28.649Z,18.90
2018-10-07T14:23:57.032Z,18.70
2018-10-07T14:26:25.280Z,18.70
2018-10-07T14:28:53.544Z,18.70
2018-10-07T14:31:22.112Z,18.70
2018-10-07T14:33:51.395Z,18.80
2018-10-07T14:36:19.744Z,18.70
2018-10-07T14:38:48.083Z,18.80
2018-10-07T14:41:16.527Z,18.90
2018-10-07T14:43:45.308Z,18.90
2018-10-07T14:46:13.815Z,18.90
2018-10-07T14:48:42.404Z,19.00
2018-10-07T14:51:10.682Z,19.00
2018-10-07T14:53:38.989Z,19.10
2018-10-07T14:56:07.298Z,19.00
2018-10-07T14:58:35.952Z,19.00
2018-10-07T15:01:04.489Z,18.90
2018-10-07T15:03:32.811Z,19.00
2018-10-07T15:06:01.312Z,19.00
2018-10-07T15:08:29.564Z,19.00
2018-10-07T15:10:57.800Z,19.00
2018-10-07T15:13:26.134Z,18.90
2018-10-07T15:15:54.414Z,18.90
2018-10-07T15:18:22.787Z,18.80
2018-10-07T15:20:51.274Z,18.70
2018-10-07T15:23:19.520Z,18.70
2018-10-07T15:28:29.449Z,18.60
2018-10-07T15:30:57.818Z,18.50
2018-10-07T15:33:26.153Z,18.50
2018-10-07T15:35:54.525Z,18.40
2018-10-07T15:38:22.730Z,18.40
2018-10-07T15:40:51.016Z,18.40
2018-10-07T15:43:19.359Z,18.40
2018-10-07T15:45:48.290Z,18.40
2018-10-07T15:48:16.566Z,18.40
2018-10-07T15:50:44.873Z,18.30
2018-10-07T15:53:13.138Z,18.30
2018-10-07T15:55:42.331Z,18.40
2018-10-07T15:58:10.613Z,18.40
2018-10-07T16:00:38.878Z,18.40
2018-10-07T16:03:07.538Z,18.40
2018-10-07T16:05:35.813Z,18.50
2018-10-07T16:08:04.503Z,18.40
2018-10-07T16:10:32.714Z,18.30
2018-10-07T16:13:01.023Z,18.20
2018-10-07T16:15:29.374Z,18.20
2018-10-07T16:17:57.642Z,18.10
2018-10-07T16:20:26.763Z,18.10
2018-10-07T16:22:55.326Z,18.10
2018-10-07T16:25:23.683Z,18.10
2018-10-07T16:27:52.170Z,18.00
2018-10-07T16:30:20.421Z,17.90
2018-10-07T16:32:48.757Z,17.90
2018-10-07T16:35:18.343Z,17.90
2018-10-07T16:37:46.754Z,17.80
2018-10-07T16:40:15.412Z,17.80
2018-10-07T16:42:43.709Z,17.70
2018-10-07T16:45:12.103Z,17.60
2018-10-07T16:47:40.450Z,17.60
2018-10-07T16:50:08.696Z,17.50
2018-10-07T16:52:37.063Z,17.50
2018-10-07T16:55:06.862Z,17.50
2018-10-07T16:57:35.087Z,17.50
2018-10-07T17:00:03.383Z,17.40
2018-10-07T17:02:31.622Z,17.40
2018-10-07T17:05:00.612Z,17.30
2018-10-07T17:07:28.878Z,17.30
2018-10-07T17:09:57.217Z,17.30
2018-10-07T17:12:25.765Z,17.20
2018-10-07T17:14:54.082Z,17.20
2018-10-07T17:17:23.694Z,17.10
2018-10-07T17:19:51.965Z,17.10
2018-10-07T17:22:20.210Z,17.00
2018-10-07T17:24:49.431Z,17.00
2018-10-07T17:27:17.831Z,17.10
2018-10-07T17:29:46.106Z,17.00
2018-10-07T17:32:14.390Z,17.00
2018-10-07T17:34:42.602Z,16.90
2018-10-07T17:37:10.852Z,16.90
2018-10-07T17:39:39.094Z,16.90
2018-10-07T17:42:07.589Z,16.90
2018-10-07T17:44:35.952Z,16.90
2018-10-07T17:47:04.218Z,16.80
2018-10-07T17:49:32.491Z,16.80
2018-10-07T17:52:01.132Z,16.80
2018-10-07T17:54:29.583Z,16.70
2018-10-07T17:56:57.883Z,16.70
2018-10-07T17:59:26.440Z,16.70
2018-10-07T18:01:54.647Z,16.70
2018-10-07T18:04:22.876Z,16.60
2018-10-07T18:06:51.167Z,16.60
2018-10-07T18:09:19.566Z,16.60
2018-10-07T18:11:48.414Z,16.60
2018-10-07T18:14:16.872Z,16.60
2018-10-07T18:16:45.520Z,16.50
2018-10-07T18:19:13.782Z,16.50
2018-10-07T18:21:42.035Z,16.50
2018-10-07T18:24:10.273Z,16.50
2018-10-07T18:26:38.608Z,16.50
2018-10-07T18:29:06.928Z,16.40
2018-10-07T18:34:14.531Z,16.40
2018-10-07T18:36:42.674Z,16.40
2018-10-07T18:39:10.947Z,16.40
2018-10-07T18:41:39.828Z,16.30
2018-10-07T18:44:08.273Z,16.30
2018-10-07T18:46:37.212Z,16.30
2018-10-07T18:49:05.720Z,16.30
2018-10-07T18:51:34.353Z,16.30
2018-10-07T18:54:03.290Z,16.30
2018-10-07T18:56:32.596Z,16.20
2018-10-07T18:59:01.096Z,16.20
2018-10-07T19:01:30.327Z,16.20
2018-10-07T19:03:59.426Z,16.20
2018-10-07T19:06:28.438Z,16.20
2018-10-07T19:08:57.015Z,16.20
2018-10-07T19:11:25.851Z,16.10
2018-10-07T19:13:54.140Z,16.10
2018-10-07T19:16:22.598Z,16.10
2018-10-07T19:18:50.902Z,16.10
2018-10-07T19:21:19.231Z,16.00
2018-10-07T19:23:47.483Z,16.00
2018-10-07T19:26:15.702Z,16.00
2018-10-07T19:28:44.092Z,16.00
2018-10-07T19:31:13.052Z,15.90
2018-10-07T19:33:43.476Z,15.90
2018-10-07T19:36:11.875Z,15.80
2018-10-07T19:38:40.227Z,15.80
2018-10-07T19:41:09.047Z,15.80
2018-10-07T19:43:37.354Z,15.70
2018-10-07T19:46:05.668Z,15.70
2018-10-07T19:48:34.794Z,15.70
2018-10-07T19:51:03.082Z,15.70
2018-10-07T19:53:31.441Z,15.70
2018-10-07T19:55:59.836Z,15.70
2018-10-07T19:58:28.119Z,15.70
2018-10-07T20:00:56.594Z,15.70
2018-10-07T20:03:24.979Z,15.70
2018-10-07T20:05:53.279Z,15.60
2018-10-07T20:08:21.686Z,15.60
2018-10-07T20:10:51.738Z,15.60
2018-10-07T20:13:20.391Z,15.50
2018-10-07T20:15:49.009Z,15.60
2018-10-07T20:18:18.327Z,15.50
2018-10-07T20:20:47.065Z,15.50
2018-10-07T20:23:16.792Z,15.50
2018-10-07T20:25:47.134Z,15.60
2018-10-07T20:28:15.531Z,15.50
2018-10-07T20:30:43.990Z,15.50
2018-10-07T20:33:12.877Z,15.50
2018-10-07T20:35:41.289Z,15.50
2018-10-07T20:38:10.803Z,15.50
2018-10-07T20:40:39.257Z,15.50
2018-10-07T20:43:07.426Z,15.40
2018-10-07T20:45:35.731Z,15.40
2018-10-07T20:48:05.267Z,15.30
2018-10-07T20:50:33.594Z,15.30
2018-10-07T20:53:01.915Z,15.30
2018-10-07T20:55:31.427Z,15.20
2018-10-07T20:57:59.700Z,15.20
2018-10-07T21:00:32.014Z,15.10
2018-10-07T21:03:02.069Z,15.10
2018-10-07T21:05:33.865Z,15.10
2018-10-07T21:08:07.983Z,15.00
2018-10-07T21:10:37.171Z,15.00
2018-10-07T21:13:05.465Z,15.00
2018-10-07T21:15:33.764Z,14.90
2018-10-07T21:18:06.078Z,14.90
2018-10-07T21:20:35.532Z,14.90
2018-10-07T21:23:04.057Z,14.90
2018-10-07T21:25:32.483Z,14.90
2018-10-07T21:28:01.016Z,14.90
2018-10-07T21:30:29.514Z,14.90
2018-10-07T21:32:58.547Z,14.80
2018-10-07T21:35:26.908Z,14.80
2018-10-07T21:37:55.444Z,14.80
2018-10-07T21:40:23.883Z,14.80
2018-10-07T21:42:52.301Z,14.80
2018-10-07T21:45:21.363Z,14.70
2018-10-07T21:47:49.811Z,14.70
2018-10-07T21:50:18.237Z,14.60
2018-10-07T21:52:47.506Z,14.50
2018-10-07T21:55:15.879Z,14.50
2018-10-07T21:57:44.154Z,14.50
2018-10-07T22:00:12.585Z,14.40
2018-10-07T22:02:40.855Z,14.40
2018-10-07T22:05:09.155Z,14.40
2018-10-07T22:07:37.383Z,14.40
2018-10-07T22:10:05.683Z,14.40
2018-10-07T22:12:34.136Z,14.40
2018-10-07T22:15:04.776Z,14.30
2018-10-07T22:17:33.049Z,14.30
2018-10-07T22:20:02.438Z,14.30
2018-10-07T22:22:32.392Z,14.20
2018-10-07T22:25:00.700Z,14.20
2018-10-07T22:27:28.919Z,14.20
2018-10-07T22:29:57.230Z,14.20
2018-10-07T22:32:25.833Z,14.20
2018-10-07T22:34:54.078Z,14.20
2018-10-07T22:37:22.333Z,14.20
2018-10-07T22:39:50.608Z,14.20
2018-10-07T22:42:18.911Z,14.20
2018-10-07T22:44:47.481Z,14.20
2018-10-07T22:47:15.869Z,14.20
2018-10-07T22:49:45.126Z,14.20
2018-10-07T22:52:13.395Z,14.10
2018-10-07T22:54:41.911Z,14.10
2018-10-07T22:57:10.145Z,14.10
2018-10-07T22:59:40.070Z,14.00
2018-10-07T23:02:09.049Z,14.00
2018-10-07T23:04:37.333Z,14.00
2018-10-07T23:07:05.832Z,13.90
2018-10-07T23:09:34.068Z,13.90
2018-10-07T23:12:02.283Z,13.90
2018-10-07T23:14:30.494Z,13.90
2018-10-07T23:16:59.658Z,13.90
2018-10-07T23:19:27.890Z,13.80
2018-10-07T23:21:56.109Z,13.80
2018-10-07T23:24:24.366Z,13.80
2018-10-07T23:26:52.606Z,13.80
2018-10-07T23:29:20.874Z,13.80
2018-10-07T23:31:49.066Z,13.80
2018-10-07T23:34:17.318Z,13.70
2018-10-07T23:36:45.514Z,13.70
2018-10-07T23:39:14.159Z,13.70
2018-10-07T23:41:42.628Z,13.70
2018-10-07T23:44:10.871Z,13.60
2018-10-07T23:46:39.393Z,13.60
2018-10-07T23:49:07.879Z,13.60
2018-10-07T23:51:36.202Z,13.60
2018-10-07T23:54:04.629Z,13.50
2018-10-07T23:56:32.858Z,13.50
2018-10-07T23:59:01.136Z,13.40
